CEB357 RPLL-RPLK
Flight info
| Callsign | CEB357 |
|---|---|
| Flight time | 0h 34m |
| Altitude | 23000 |
| Route | TIMON4V TIMON W15 RAGAY RAGAY1B |
| Aircraft | A20N/M-SDE2E3FGHIJ1RWXY/LB1 |
Departure
| Time | 2026-05-01 13:17 |
|---|---|
| Airport | Ninoy Aquino International Airport (RPLL) |
Arrival
| Time | 2026-05-01 13:51 |
|---|---|
| Airport | Bicol International Airport (RPLK) |
| Time | Latitude | Longitude | Altitude | Speed | Heading |
|---|---|---|---|---|---|
| 2026-05-01 12:57 | 14.51991 | 121.01179 | 82 ft | 0 kts | 46° |
| 2026-05-01 13:07 | 14.51931 | 121.01129 | 82 ft | 2 kts | 8° |
| 2026-05-01 13:07 | 14.51916 | 121.01128 | 82 ft | 2 kts | 351° |
| 2026-05-01 13:07 | 14.51902 | 121.01133 | 82 ft | 2 kts | 334° |
| 2026-05-01 13:08 | 14.51890 | 121.01141 | 82 ft | 1 kts | 318° |
| 2026-05-01 13:08 | 14.51886 | 121.01145 | 82 ft | 1 kts | 313° |
| 2026-05-01 13:08 | 14.51885 | 121.01146 | 82 ft | 0 kts | 314° |
| 2026-05-01 13:10 | 14.51887 | 121.01144 | 82 ft | 2 kts | 314° |
| 2026-05-01 13:10 | 14.51909 | 121.01122 | 82 ft | 5 kts | 314° |
| 2026-05-01 13:11 | 14.51947 | 121.01080 | 82 ft | 9 kts | 314° |
| 2026-05-01 13:11 | 14.51998 | 121.01027 | 82 ft | 10 kts | 314° |
| 2026-05-01 13:11 | 14.52054 | 121.00968 | 82 ft | 11 kts | 314° |
| 2026-05-01 13:11 | 14.52116 | 121.00906 | 82 ft | 12 kts | 316° |
| 2026-05-01 13:12 | 14.52182 | 121.00841 | 82 ft | 13 kts | 316° |
| 2026-05-01 13:12 | 14.52235 | 121.00787 | 82 ft | 0 kts | 314° |
| 2026-05-01 13:12 | 14.52243 | 121.00778 | 82 ft | 2 kts | 314° |
| 2026-05-01 13:12 | 14.52262 | 121.00757 | 82 ft | 5 kts | 314° |
| 2026-05-01 13:13 | 14.52290 | 121.00727 | 82 ft | 6 kts | 314° |
| 2026-05-01 13:13 | 14.52326 | 121.00690 | 82 ft | 7 kts | 314° |
| 2026-05-01 13:13 | 14.52369 | 121.00645 | 82 ft | 9 kts | 315° |
| 2026-05-01 13:13 | 14.52420 | 121.00594 | 82 ft | 10 kts | 315° |
| 2026-05-01 13:14 | 14.52474 | 121.00537 | 82 ft | 10 kts | 314° |
| 2026-05-01 13:14 | 14.52473 | 121.00486 | 82 ft | 7 kts | 231° |
| 2026-05-01 13:14 | 14.52467 | 121.00480 | 82 ft | 0 kts | 228° |
| 2026-05-01 13:14 | 14.52458 | 121.00470 | 82 ft | 2 kts | 226° |
| 2026-05-01 13:15 | 14.52444 | 121.00454 | 82 ft | 3 kts | 226° |
| 2026-05-01 13:15 | 14.52430 | 121.00440 | 82 ft | 2 kts | 226° |
| 2026-05-01 13:15 | 14.52417 | 121.00427 | 82 ft | 2 kts | 224° |
| 2026-05-01 13:15 | 14.52404 | 121.00414 | 82 ft | 2 kts | 223° |
| 2026-05-01 13:16 | 14.52385 | 121.00397 | 82 ft | 4 kts | 200° |
| 2026-05-01 13:16 | 14.52356 | 121.00414 | 82 ft | 5 kts | 139° |
| 2026-05-01 13:16 | 14.52355 | 121.00415 | 82 ft | 0 kts | 139° |
| 2026-05-01 13:17 | 14.50910 | 121.01895 | 644 ft | 148 kts | 132° |
| 2026-05-01 13:17 | 14.50202 | 121.02605 | 1456 ft | 140 kts | 133° |
| 2026-05-01 13:18 | 14.48786 | 121.04002 | 2481 ft | 153 kts | 132° |
| 2026-05-01 13:18 | 14.47984 | 121.04794 | 2852 ft | 169 kts | 133° |
| 2026-05-01 13:18 | 14.47052 | 121.05663 | 3190 ft | 191 kts | 135° |
| 2026-05-01 13:18 | 14.46011 | 121.06619 | 3622 ft | 208 kts | 135° |
| 2026-05-01 13:19 | 14.44870 | 121.07675 | 3958 ft | 232 kts | 135° |
| 2026-05-01 13:19 | 14.43621 | 121.08835 | 4450 ft | 250 kts | 135° |
| 2026-05-01 13:19 | 14.40891 | 121.11369 | 5729 ft | 272 kts | 135° |
| 2026-05-01 13:20 | 14.39486 | 121.12676 | 6544 ft | 275 kts | 135° |
| 2026-05-01 13:20 | 14.38235 | 121.14142 | 7331 ft | 276 kts | 122° |
| 2026-05-01 13:20 | 14.37221 | 121.15807 | 8156 ft | 277 kts | 118° |
| 2026-05-01 13:21 | 14.35274 | 121.19271 | 9653 ft | 284 kts | 117° |
| 2026-05-01 13:21 | 14.34365 | 121.21079 | 10360 ft | 286 kts | 111° |
| 2026-05-01 13:21 | 14.33593 | 121.23010 | 10766 ft | 300 kts | 109° |
| 2026-05-01 13:21 | 14.32801 | 121.25091 | 11055 ft | 318 kts | 109° |
| 2026-05-01 13:22 | 14.31966 | 121.27264 | 11341 ft | 335 kts | 110° |
| 2026-05-01 13:22 | 14.31075 | 121.29544 | 11630 ft | 351 kts | 110° |
| 2026-05-01 13:22 | 14.30137 | 121.31918 | 11996 ft | 362 kts | 110° |
| 2026-05-01 13:22 | 14.29188 | 121.34306 | 12567 ft | 366 kts | 110° |
| 2026-05-01 13:23 | 14.28205 | 121.36768 | 13160 ft | 369 kts | 110° |
| 2026-05-01 13:23 | 14.27227 | 121.39217 | 13715 ft | 372 kts | 110° |
| 2026-05-01 13:23 | 14.26238 | 121.41688 | 14272 ft | 375 kts | 110° |
| 2026-05-01 13:23 | 14.25244 | 121.44170 | 14813 ft | 378 kts | 110° |
| 2026-05-01 13:24 | 14.24233 | 121.46694 | 15334 ft | 381 kts | 110° |
| 2026-05-01 13:24 | 14.23223 | 121.49213 | 15860 ft | 384 kts | 110° |
| 2026-05-01 13:24 | 14.22203 | 121.51756 | 16379 ft | 386 kts | 111° |
| 2026-05-01 13:25 | 14.20142 | 121.56896 | 17339 ft | 392 kts | 111° |
| 2026-05-01 13:25 | 14.19104 | 121.59482 | 17804 ft | 394 kts | 111° |
| 2026-05-01 13:25 | 14.18046 | 121.62116 | 18230 ft | 398 kts | 111° |
| 2026-05-01 13:25 | 14.16994 | 121.64732 | 18649 ft | 401 kts | 111° |
| 2026-05-01 13:26 | 14.15924 | 121.67400 | 19086 ft | 404 kts | 111° |
| 2026-05-01 13:26 | 14.14851 | 121.70081 | 19489 ft | 408 kts | 111° |
| 2026-05-01 13:26 | 14.13764 | 121.72794 | 19885 ft | 411 kts | 111° |
| 2026-05-01 13:26 | 14.12667 | 121.75529 | 20284 ft | 415 kts | 112° |
| 2026-05-01 13:27 | 14.11567 | 121.78264 | 20687 ft | 418 kts | 112° |
| 2026-05-01 13:27 | 14.10444 | 121.81053 | 21090 ft | 421 kts | 112° |
| 2026-05-01 13:27 | 14.08161 | 121.86716 | 21519 ft | 436 kts | 112° |
| 2026-05-01 13:28 | 14.05786 | 121.92577 | 21802 ft | 453 kts | 113° |
| 2026-05-01 13:28 | 14.04443 | 121.95545 | 21932 ft | 461 kts | 116° |
| 2026-05-01 13:29 | 14.01481 | 122.01508 | 22241 ft | 474 kts | 116° |
| 2026-05-01 13:29 | 13.98439 | 122.07584 | 22786 ft | 479 kts | 116° |
| 2026-05-01 13:30 | 13.92343 | 122.19761 | 22924 ft | 479 kts | 116° |
| 2026-05-01 13:31 | 13.89297 | 122.25840 | 22928 ft | 478 kts | 117° |
| 2026-05-01 13:31 | 13.84692 | 122.34948 | 22932 ft | 478 kts | 117° |
| 2026-05-01 13:32 | 13.81633 | 122.41035 | 22912 ft | 479 kts | 116° |
| 2026-05-01 13:33 | 13.77090 | 122.50094 | 22178 ft | 472 kts | 116° |
| 2026-05-01 13:33 | 13.74063 | 122.56054 | 21676 ft | 469 kts | 118° |
| 2026-05-01 13:34 | 13.70541 | 122.61648 | 20937 ft | 463 kts | 125° |
| 2026-05-01 13:34 | 13.66729 | 122.66908 | 19974 ft | 454 kts | 126° |
| 2026-05-01 13:35 | 13.63020 | 122.72029 | 18949 ft | 445 kts | 125° |
| 2026-05-01 13:35 | 13.61176 | 122.74573 | 18428 ft | 441 kts | 125° |
| 2026-05-01 13:35 | 13.57548 | 122.79574 | 17365 ft | 433 kts | 125° |
| 2026-05-01 13:36 | 13.55763 | 122.82033 | 16835 ft | 429 kts | 125° |
| 2026-05-01 13:36 | 13.53978 | 122.84489 | 16279 ft | 426 kts | 125° |
| 2026-05-01 13:36 | 13.50469 | 122.89320 | 15174 ft | 419 kts | 125° |
| 2026-05-01 13:37 | 13.48732 | 122.91709 | 14621 ft | 416 kts | 125° |
| 2026-05-01 13:37 | 13.47590 | 122.93280 | 14252 ft | 414 kts | 125° |
| 2026-05-01 13:37 | 13.45304 | 122.96425 | 13508 ft | 410 kts | 125° |
| 2026-05-01 13:37 | 13.43598 | 122.98771 | 12964 ft | 407 kts | 124° |
| 2026-05-01 13:38 | 13.40253 | 123.03368 | 11920 ft | 400 kts | 124° |
| 2026-05-01 13:38 | 13.38589 | 123.05653 | 11389 ft | 396 kts | 124° |
| 2026-05-01 13:38 | 13.36951 | 123.07897 | 10868 ft | 393 kts | 124° |
| 2026-05-01 13:39 | 13.35317 | 123.10131 | 10471 ft | 389 kts | 124° |
| 2026-05-01 13:39 | 13.33688 | 123.12362 | 10345 ft | 388 kts | 124° |
| 2026-05-01 13:39 | 13.32109 | 123.14520 | 10193 ft | 366 kts | 124° |
| 2026-05-01 13:39 | 13.30644 | 123.16519 | 10097 ft | 335 kts | 124° |
| 2026-05-01 13:40 | 13.29297 | 123.18356 | 10020 ft | 307 kts | 124° |
| 2026-05-01 13:40 | 13.28052 | 123.20055 | 9781 ft | 287 kts | 124° |
| 2026-05-01 13:40 | 13.26820 | 123.21594 | 9447 ft | 275 kts | 129° |
| 2026-05-01 13:40 | 13.25515 | 123.23003 | 9146 ft | 268 kts | 130° |
| 2026-05-01 13:41 | 13.24230 | 123.24360 | 8839 ft | 267 kts | 131° |
| 2026-05-01 13:41 | 13.22932 | 123.25728 | 8538 ft | 265 kts | 130° |
| 2026-05-01 13:41 | 13.21656 | 123.27072 | 8241 ft | 264 kts | 130° |
| 2026-05-01 13:41 | 13.20383 | 123.28414 | 7940 ft | 262 kts | 131° |
| 2026-05-01 13:42 | 13.19098 | 123.29768 | 7636 ft | 261 kts | 131° |
| 2026-05-01 13:42 | 13.17832 | 123.31103 | 7339 ft | 259 kts | 131° |
| 2026-05-01 13:42 | 13.16587 | 123.32413 | 7054 ft | 258 kts | 131° |
| 2026-05-01 13:42 | 13.15338 | 123.33728 | 6765 ft | 256 kts | 131° |
| 2026-05-01 13:43 | 13.14096 | 123.35034 | 6477 ft | 255 kts | 131° |
| 2026-05-01 13:43 | 13.12853 | 123.36344 | 6187 ft | 253 kts | 131° |
| 2026-05-01 13:43 | 13.11626 | 123.37637 | 5899 ft | 252 kts | 131° |
| 2026-05-01 13:43 | 13.10407 | 123.38921 | 5614 ft | 251 kts | 131° |
| 2026-05-01 13:44 | 13.09187 | 123.40205 | 5330 ft | 250 kts | 131° |
| 2026-05-01 13:44 | 13.07975 | 123.41480 | 5048 ft | 249 kts | 131° |
| 2026-05-01 13:44 | 13.06770 | 123.42748 | 4766 ft | 248 kts | 131° |
| 2026-05-01 13:44 | 13.05554 | 123.44026 | 4481 ft | 246 kts | 131° |
| 2026-05-01 13:45 | 13.04367 | 123.45274 | 4206 ft | 243 kts | 131° |
| 2026-05-01 13:45 | 13.03191 | 123.46509 | 3938 ft | 241 kts | 131° |
| 2026-05-01 13:45 | 13.02032 | 123.47728 | 3668 ft | 238 kts | 131° |
| 2026-05-01 13:45 | 13.00880 | 123.48937 | 3390 ft | 233 kts | 130° |
| 2026-05-01 13:46 | 12.99763 | 123.50109 | 3136 ft | 223 kts | 130° |
| 2026-05-01 13:46 | 12.98817 | 123.51285 | 3037 ft | 204 kts | 111° |
| 2026-05-01 13:46 | 12.98536 | 123.52651 | 3054 ft | 190 kts | 85° |
| 2026-05-01 13:46 | 12.98853 | 123.53883 | 2992 ft | 174 kts | 62° |
| 2026-05-01 13:47 | 12.99554 | 123.54836 | 2910 ft | 158 kts | 48° |
| 2026-05-01 13:47 | 13.00272 | 123.55611 | 2859 ft | 147 kts | 48° |
| 2026-05-01 13:47 | 13.00981 | 123.56374 | 2789 ft | 145 kts | 48° |
| 2026-05-01 13:47 | 13.01672 | 123.57124 | 2716 ft | 145 kts | 48° |
| 2026-05-01 13:48 | 13.02365 | 123.57882 | 2639 ft | 143 kts | 47° |
| 2026-05-01 13:48 | 13.03053 | 123.58637 | 2543 ft | 144 kts | 47° |
| 2026-05-01 13:48 | 13.03731 | 123.59383 | 2362 ft | 143 kts | 47° |
| 2026-05-01 13:48 | 13.04404 | 123.60124 | 2162 ft | 140 kts | 47° |
| 2026-05-01 13:49 | 13.05068 | 123.60854 | 1974 ft | 139 kts | 48° |
| 2026-05-01 13:49 | 13.05724 | 123.61578 | 1790 ft | 139 kts | 48° |
| 2026-05-01 13:49 | 13.06373 | 123.62315 | 1600 ft | 138 kts | 50° |
| 2026-05-01 13:49 | 13.07014 | 123.63052 | 1449 ft | 138 kts | 47° |
| 2026-05-01 13:50 | 13.07667 | 123.63773 | 1268 ft | 138 kts | 49° |
| 2026-05-01 13:50 | 13.08313 | 123.64507 | 1067 ft | 137 kts | 48° |
| 2026-05-01 13:50 | 13.08962 | 123.65220 | 890 ft | 137 kts | 48° |
| 2026-05-01 13:50 | 13.09611 | 123.65941 | 707 ft | 136 kts | 47° |
| 2026-05-01 13:51 | 13.10247 | 123.66643 | 513 ft | 134 kts | 47° |
| 2026-05-01 13:51 | 13.10883 | 123.67344 | 348 ft | 131 kts | 48° |
| 2026-05-01 13:51 | 13.11428 | 123.67947 | 308 ft | 84 kts | 47° |
| 2026-05-01 13:51 | 13.11651 | 123.68189 | 306 ft | 10 kts | 45° |
| 2026-05-01 13:52 | 13.11688 | 123.68250 | 305 ft | 8 kts | 30° |
| 2026-05-01 13:52 | 13.11691 | 123.68233 | 305 ft | 4 kts | 224° |
| 2026-05-01 13:52 | 13.11668 | 123.68208 | 306 ft | 5 kts | 226° |
| 2026-05-01 13:52 | 13.11637 | 123.68175 | 306 ft | 8 kts | 227° |
| 2026-05-01 13:53 | 13.11589 | 123.68122 | 306 ft | 12 kts | 227° |
| 2026-05-01 13:53 | 13.11456 | 123.68042 | 306 ft | 11 kts | 142° |
| 2026-05-01 13:53 | 13.11397 | 123.68092 | 307 ft | 10 kts | 152° |
| 2026-05-01 13:54 | 13.11336 | 123.68084 | 309 ft | 8 kts | 217° |
| 2026-05-01 13:54 | 13.11292 | 123.68040 | 309 ft | 9 kts | 227° |
| 2026-05-01 13:54 | 13.11259 | 123.68007 | 310 ft | 2 kts | 202° |
| 2026-05-01 13:54 | 13.11242 | 123.68011 | 310 ft | 2 kts | 153° |
| 2026-05-01 13:55 | 13.11224 | 123.68024 | 311 ft | 4 kts | 140° |
| 2026-05-01 13:55 | 13.11201 | 123.68044 | 311 ft | 0 kts | 137° |
| 2026-05-01 13:55 | 13.11200 | 123.68046 | 311 ft | 0 kts | 137° |
| 2026-05-01 13:55 | 13.11199 | 123.68047 | 311 ft | 0 kts | 137° |